77.4 °F

Conditions at local time 8:15PM 

Nearby METAR Stations

KLNA - Lantana/Palm Beach Cnty, Florida, USA
Distance from station: E 6mi, 9km
Updated: Sun, 19-May-2024 7:55pm EDT
Partly Cloudy
Partly Cloudy
 Wind from NE
Wind: NE 3 mph, 6 km/h
Temperature: 82°F , 28°C
Heat Index: 86°F , 30°C
Dew Point: 72°F , 22°C
Humidity: 70%
Barometer: 29.91 inHg , 1012.9 hPa
Clouds: Partly Cloudy
Visibility: 10 miles , 16 km
Cloud details: Partly Cloudy 5000 ft
Partly Cloudy 6500 ft
2024/05/19 23:55 KLNA 192355Z AUTO 05003KT 10SM SCT050 SCT065 28/22 A2991 RMK AO2 T02760215 10341 20265 TSNO
KPBI - Palm Beach Intl, Florida, USA
Distance from station: NE 7mi, 12km
Updated: Sun, 19-May-2024 8:08pm EDT
Thunderstorm, Mostly cloudy
Thunderstorm, Mostly cloudy
 Wind from NNE
Wind: NNE 7 mph, 11 km/h
Temperature: 81°F , 27°C
Heat Index: 86°F , 30°C
Dew Point: 73°F , 23°C
Humidity: 79%
Barometer: 29.93 inHg , 1013.5 hPa
Summary: Thunderstorm
Clouds: Mostly Cloudy
Visibility: 9 miles , 14 km
Cloud details: Partly Cloudy 4500 ft
Mostly Cloudy 6000 ft
Mostly Cloudy 9000 ft
2024/05/20 00:08 KPBI 200008Z 03006KT 9SM TS SCT045CB BKN060 BKN090 27/23 A2993 RMK AO2 LTG DSNT SE AND W RAB2358E08 TSE00B08 OCNL LTGICCG SE AND W TS SE AND W MOV E P0000 T02670228
 
KBCT - Boca Raton Arpt, Florida, USA
Distance from station: SSE 16mi, 26km
Updated: Sun, 19-May-2024 7:53pm EDT
Nearby thunderstorm, Partly cloudy
Nearby thunderstorm, Partly cloudy
 Wind from E
Wind: E 12 mph, 19 km/h
Temperature: 79°F , 26°C
Dew Point: 73°F , 23°C
Humidity: 84%
Barometer: 29.90 inHg , 1012.5 hPa
Summary: Nearby Thunderstorm
Clouds: Partly Cloudy
Visibility: 7 miles , 11 km
Cloud details: Partly Cloudy 5500 ft
2024/05/19 23:53 KBCT 192353Z 08010KT 7SM VCTS SCT055 26/23 A2990
KF45 - North Palm Beach Cnty, Florida, USA
Distance from station: N 17mi, 27km
Updated: Sun, 19-May-2024 7:50pm EDT
Few Clouds
Few Clouds
 Wind from NNE
Wind: NNE 5 mph, 7 km/h
Temperature: 75°F , 24°C
Dew Point: 73°F , 23°C
Humidity: 94%
Barometer: 29.91 inHg , 1012.9 hPa
Clouds: Few Clouds
Visibility: 10 miles , 16 km
Cloud details: Few Clouds 4700 ft
2024/05/19 23:50 KF45 192350Z AUTO 02004KT 10SM FEW047 24/23 A2991 RMK AO2 TSNO
 
KPMP - Pompano Beach Arpt, Florida, USA
Distance from station: S 25mi, 40km
Updated: Sun, 19-May-2024 7:53pm EDT
Mostly Cloudy
Mostly Cloudy
 Wind from ENE
Wind: ENE 6 mph, 9 km/h
Temperature: 79°F , 26°C
Dew Point: 73°F , 23°C
Humidity: 84%
Barometer: 29.90 inHg , 1012.5 hPa
Clouds: Mostly Cloudy
Visibility: 10 miles , 16 km
Cloud details: Partly Cloudy 1500 ft
Mostly Cloudy 5500 ft
2024/05/19 23:53 KPMP 192353Z 07005KT 10SM SCT015 BKN055 26/23 A2990 RMK AO2 WSHFT 2249 LTG DSNT NW-E RAE25 SLP126 P0001 60029 T02610228 10322 20250 53017 $
KFXE - Ft Lauderdale Exec, Florida, USA
Distance from station: S 28mi, 45km
Updated: Sun, 19-May-2024 7:53pm EDT
Few Clouds
Few Clouds
 Wind from NE
Wind: NE 6 mph, 9 km/h
Temperature: 79°F , 26°C
Dew Point: 75°F , 24°C
Humidity: 89%
Barometer: 29.89 inHg , 1012.2 hPa
Clouds: Few Clouds
Visibility: 10 miles , 16 km
Cloud details: Few Clouds 4300 ft
2024/05/19 23:53 KFXE 192353Z 05005KT 10SM FEW043 26/24 A2989 RMK AO2 LTG DSNT N-E RAB2257E13 SLP125 P0001 60005 T02610239 10361 20261 53016
 
KFLL - Ft Lauderdale-Hollywood Intl, Florida, USA
Distance from station: S 36mi, 58km
Updated: Sun, 19-May-2024 7:53pm EDT
Mostly Cloudy
Mostly Cloudy
 Wind from NE
Wind: NE 6 mph, 9 km/h
Temperature: 81°F , 27°C
Heat Index: 85°F , 29°C
Dew Point: 72°F , 22°C
Humidity: 74%
Barometer: 29.89 inHg , 1012.2 hPa
Clouds: Mostly Cloudy
Visibility: 10 miles , 16 km
Cloud details: Few Clouds 3500 ft
Partly Cloudy 6000 ft
Partly Cloudy 10000 ft
Mostly Cloudy 25000 ft
2024/05/19 23:53 KFLL 192353Z 05005KT 10SM FEW035 SCT060 SCT100 BKN250 27/22 A2989 RMK AO2 LTG DSNT NE AND E TSB03E37 SLP121 T02670222 10350 20267 53016
KSUA - Stuart/Witham Fld, Florida, USA
Distance from station: N 40mi, 64km
Updated: Sun, 19-May-2024 7:48pm EDT
Nearby thunderstorm, Mostly cloudy
Nearby thunderstorm, Mostly cloudy
 Wind from varies
Wind: varies 5 mph, 7 km/h
Temperature: 73°F , 23°C
Dew Point: 72°F , 22°C
Humidity: 94%
Barometer: 29.91 inHg , 1012.9 hPa
Summary: Nearby Thunderstorm
Clouds: Mostly Cloudy
Visibility: 7 miles , 11 km
Cloud details: Few Clouds 1300 ft
Mostly Cloudy 5500 ft
2024/05/19 23:48 KSUA 192348Z VRB04KT 7SM VCTS FEW013 BKN055 23/22 A2991
 
KHWO - Hollywood/North Perry Aprt, Florida, USA
Distance from station: S 42mi, 67km
Updated: Sun, 19-May-2024 7:53pm EDT
Mostly Cloudy
Mostly Cloudy
 Wind from NNE
Wind: NNE 10 mph, 17 km/h
Temperature: 84°F , 29°C
Heat Index: 88°F , 31°C
Dew Point: 70°F , 21°C
Humidity: 62%
Barometer: 29.91 inHg , 1012.9 hPa
Clouds: Mostly Cloudy
Visibility: 10 miles , 16 km
Cloud details: Mostly Cloudy 4200 ft
2024/05/19 23:53 KHWO 192353Z 03009KT 10SM BKN042 29/21 A2991 RMK AO2 WSHFT 2240 SLP127 T02940211 10383 20289 53018 $
KOPF - Miami/Opa Locka Arpt, Florida, USA
Distance from station: S 48mi, 78km
Updated: Sun, 19-May-2024 7:53pm EDT
Partly Cloudy
Partly Cloudy
 Wind from NE
Wind: NE 10 mph, 17 km/h
Temperature: 82°F , 28°C
Heat Index: 86°F , 30°C
Dew Point: 70°F , 21°C
Humidity: 66%
Barometer: 29.90 inHg , 1012.5 hPa
Clouds: Partly Cloudy
Visibility: 10 miles , 16 km
Cloud details: Few Clouds 4200 ft
Partly Cloudy 7000 ft
2024/05/19 23:53 KOPF 192353Z 05009KT 10SM FEW042 SCT070 28/21 A2990 RMK AO2 WSHFT 2310 SLP125 T02830211 10361 20283 53017

Metar display script from Saratoga-Weather.org